createdAt,value
2018-05-03T00:01:27.235Z,4.07
2018-05-03T00:03:53.471Z,4.00
2018-05-03T00:06:19.723Z,4.40
2018-05-03T00:08:46.769Z,4.77
2018-05-03T00:11:12.961Z,4.77
2018-05-03T00:13:39.160Z,5.13
2018-05-03T00:16:05.381Z,7.77
2018-05-03T00:18:32.315Z,4.50
2018-05-03T00:20:59.237Z,4.80
2018-05-03T00:23:25.499Z,5.40
2018-05-03T00:25:52.482Z,4.10
2018-05-03T00:28:18.690Z,5.13
2018-05-03T00:30:44.881Z,6.70
2018-05-03T00:33:11.088Z,5.13
2018-05-03T00:35:37.267Z,4.77
2018-05-03T00:38:03.484Z,4.27
2018-05-03T00:40:30.448Z,6.60
2018-05-03T00:42:56.653Z,5.30
2018-05-03T00:45:22.861Z,8.00
2018-05-03T00:47:49.071Z,6.80
2018-05-03T00:50:15.272Z,7.90
2018-05-03T00:52:41.451Z,4.63
2018-05-03T00:55:08.418Z,5.57
2018-05-03T00:57:34.648Z,5.13
2018-05-03T01:00:00.911Z,5.33
2018-05-03T01:02:27.124Z,6.93
2018-05-03T01:04:53.328Z,5.00
2018-05-03T01:07:20.322Z,8.00
2018-05-03T01:09:46.580Z,5.00
2018-05-03T01:12:12.784Z,5.27
2018-05-03T01:14:39.030Z,5.17
2018-05-03T01:17:05.221Z,5.80
2018-05-03T01:19:31.403Z,4.90
2018-05-03T01:21:58.335Z,5.07
2018-05-03T01:24:24.574Z,5.07
2018-05-03T01:26:51.509Z,10.73
2018-05-03T01:29:17.696Z,5.30
2018-05-03T01:31:43.925Z,7.70
2018-05-03T01:34:10.112Z,5.20
2018-05-03T01:36:36.358Z,4.43
2018-05-03T01:39:02.627Z,4.67
2018-05-03T01:41:28.855Z,5.47
2018-05-03T01:43:55.110Z,8.13
2018-05-03T01:46:22.107Z,4.30
2018-05-03T01:48:48.382Z,5.33
2018-05-03T01:51:15.374Z,5.40
2018-05-03T01:53:42.646Z,5.40
2018-05-03T01:56:08.870Z,5.23
2018-05-03T01:58:35.110Z,4.77
2018-05-03T02:01:01.375Z,5.20
2018-05-03T02:03:28.348Z,6.30
2018-05-03T02:05:54.636Z,4.67
2018-05-03T02:08:21.023Z,4.80
2018-05-03T02:10:47.250Z,5.00
2018-05-03T02:13:13.483Z,4.70
2018-05-03T02:15:39.763Z,7.27
2018-05-03T02:18:06.739Z,4.90
2018-05-03T02:20:32.967Z,5.60
2018-05-03T02:22:59.198Z,4.90
2018-05-03T02:25:25.433Z,4.90
2018-05-03T02:27:51.659Z,4.03
2018-05-03T02:30:17.921Z,8.10
2018-05-03T02:32:44.224Z,5.10
2018-05-03T02:35:10.536Z,4.73
2018-05-03T02:37:36.792Z,4.50
2018-05-03T02:40:03.096Z,4.83
2018-05-03T02:42:29.382Z,4.93
2018-05-03T02:44:55.653Z,5.17
2018-05-03T02:47:21.953Z,4.77
2018-05-03T02:49:48.161Z,5.07
2018-05-03T02:52:14.458Z,6.07
2018-05-03T02:54:40.717Z,5.23
2018-05-03T02:57:19.333Z,5.60
2018-05-03T02:59:57.801Z,5.83
2018-05-03T03:05:48.465Z,5.97
2018-05-03T03:15:19.413Z,6.83
2018-05-03T03:18:04.127Z,5.80
2018-05-03T03:20:57.494Z,9.50
2018-05-03T03:23:53.902Z,5.97
2018-05-03T03:26:38.503Z,5.67
2018-05-03T03:29:24.074Z,6.80
2018-05-03T03:32:09.320Z,5.67
2018-05-03T03:34:35.620Z,6.90
2018-05-03T03:37:15.105Z,9.37
2018-05-03T03:39:59.802Z,5.90
2018-05-03T03:45:39.973Z,6.47
2018-05-03T03:48:06.237Z,6.43
2018-05-03T03:50:32.477Z,6.50
2018-05-03T03:52:58.710Z,7.00
2018-05-03T03:55:24.972Z,6.33
2018-05-03T03:57:51.981Z,5.50
2018-05-03T04:00:18.221Z,7.20
2018-05-03T04:02:44.480Z,6.63
2018-05-03T04:05:11.456Z,7.30
2018-05-03T04:07:37.717Z,7.27
2018-05-03T04:10:03.978Z,6.13
2018-05-03T04:12:30.940Z,6.80
2018-05-03T04:14:57.189Z,6.17
2018-05-03T04:17:35.597Z,6.30
2018-05-03T04:20:14.012Z,6.63
2018-05-03T04:22:52.459Z,6.53
2018-05-03T04:25:30.999Z,10.27
2018-05-03T04:27:57.253Z,9.43
2018-05-03T04:30:23.475Z,7.37
2018-05-03T04:32:50.505Z,6.67
2018-05-03T04:35:17.510Z,9.20
2018-05-03T04:37:43.762Z,7.87
2018-05-03T04:40:10.033Z,6.97
2018-05-03T04:42:36.989Z,7.40
2018-05-03T04:45:03.253Z,8.20
2018-05-03T04:47:29.486Z,7.23
2018-05-03T04:49:55.882Z,6.80
2018-05-03T04:52:22.093Z,6.53
2018-05-03T04:54:48.341Z,9.03
2018-05-03T04:57:14.590Z,8.83
2018-05-03T04:59:40.885Z,9.33
2018-05-03T05:02:07.149Z,6.97
2018-05-03T05:04:33.413Z,7.03
2018-05-03T05:06:59.637Z,8.33
2018-05-03T05:09:25.905Z,9.27
2018-05-03T05:11:52.164Z,8.50
2018-05-03T05:14:18.390Z,8.70
2018-05-03T05:16:44.694Z,9.23
2018-05-03T05:19:10.946Z,10.00
2018-05-03T05:21:37.160Z,7.73
2018-05-03T05:24:03.404Z,7.57
2018-05-03T05:26:29.657Z,15.80
2018-05-03T05:28:55.904Z,6.40
2018-05-03T05:31:22.937Z,6.77
2018-05-03T05:33:49.185Z,7.27
2018-05-03T05:36:16.149Z,7.40
2018-05-03T05:38:42.440Z,7.80
2018-05-03T05:41:08.615Z,9.07
2018-05-03T05:43:34.878Z,8.10
2018-05-03T05:46:01.149Z,9.20
2018-05-03T05:48:28.124Z,12.60
2018-05-03T05:50:54.395Z,9.43
2018-05-03T05:53:20.660Z,13.37
2018-05-03T05:55:47.726Z,11.60
2018-05-03T05:58:13.987Z,9.50
2018-05-03T06:00:40.258Z,10.53
2018-05-03T06:03:07.294Z,12.43
2018-05-03T06:05:34.290Z,14.93
2018-05-03T06:08:00.540Z,14.10
2018-05-03T06:10:26.854Z,13.50
2018-05-03T06:12:53.093Z,13.30
2018-05-03T06:15:19.337Z,15.70
2018-05-03T06:17:45.638Z,13.47
2018-05-03T06:20:11.895Z,18.27
2018-05-03T06:22:38.127Z,15.00
2018-05-03T06:25:04.426Z,19.00
2018-05-03T06:27:30.701Z,16.00
2018-05-03T06:29:57.694Z,19.53
2018-05-03T06:32:23.952Z,20.80
2018-05-03T06:34:50.170Z,14.70
2018-05-03T06:37:16.503Z,16.33
2018-05-03T06:39:42.758Z,16.90
2018-05-03T06:42:09.006Z,21.30
2018-05-03T06:44:35.233Z,12.97
2018-05-03T06:47:01.477Z,14.20
2018-05-03T06:49:27.725Z,13.23
2018-05-03T06:51:53.997Z,13.03
2018-05-03T06:54:20.225Z,15.67
2018-05-03T06:56:46.454Z,13.70
2018-05-03T06:59:12.694Z,14.30
2018-05-03T07:01:39.645Z,14.27
2018-05-03T07:04:06.691Z,13.97
2018-05-03T07:06:32.938Z,14.20
2018-05-03T07:08:59.195Z,12.97
2018-05-03T07:11:25.439Z,14.80
2018-05-03T07:13:51.669Z,15.73
2018-05-03T07:16:17.982Z,12.83
2018-05-03T07:18:44.182Z,13.70
2018-05-03T07:21:10.435Z,13.80
2018-05-03T07:23:36.694Z,14.77
2018-05-03T07:26:02.969Z,13.93
2018-05-03T07:28:29.223Z,13.00
2018-05-03T07:30:55.519Z,12.63
2018-05-03T07:33:21.734Z,13.13
2018-05-03T07:35:48.706Z,13.70
2018-05-03T07:38:14.921Z,13.27
2018-05-03T07:40:41.174Z,14.47
2018-05-03T07:43:07.434Z,19.53
2018-05-03T07:45:33.650Z,14.10
2018-05-03T07:47:59.890Z,15.17
2018-05-03T07:50:26.106Z,11.77
2018-05-03T07:52:52.335Z,11.70
2018-05-03T07:55:18.567Z,12.37
2018-05-03T07:57:44.846Z,11.53
2018-05-03T08:00:11.098Z,12.43
2018-05-03T08:02:37.346Z,12.00
2018-05-03T08:05:03.644Z,13.40
2018-05-03T08:07:29.943Z,11.80
2018-05-03T08:09:56.159Z,12.77
2018-05-03T08:12:22.451Z,13.47
2018-05-03T08:14:48.727Z,17.00
2018-05-03T08:17:14.956Z,13.20
2018-05-03T08:19:41.906Z,16.50
2018-05-03T08:22:08.122Z,14.33
2018-05-03T08:24:34.310Z,12.83
2018-05-03T08:27:00.547Z,17.27
2018-05-03T08:29:26.843Z,13.87
2018-05-03T08:31:53.168Z,13.27
2018-05-03T08:34:19.366Z,16.13
2018-05-03T08:36:46.412Z,14.73
2018-05-03T08:39:12.662Z,12.70
2018-05-03T08:41:38.903Z,13.13
2018-05-03T08:44:05.154Z,13.00
2018-05-03T08:46:31.451Z,12.93
2018-05-03T08:48:57.689Z,12.67
2018-05-03T08:51:23.954Z,11.73
2018-05-03T08:53:50.153Z,13.30
2018-05-03T08:56:16.363Z,12.80
2018-05-03T08:58:42.609Z,13.40
2018-05-03T09:01:08.977Z,13.93
2018-05-03T09:03:35.870Z,16.70
2018-05-03T09:06:02.086Z,13.70
2018-05-03T09:08:29.020Z,12.97
2018-05-03T09:10:56.035Z,16.13
2018-05-03T09:13:22.262Z,14.40
2018-05-03T09:15:48.503Z,16.37
2018-05-03T09:18:14.761Z,14.00
2018-05-03T09:20:41.002Z,17.63
2018-05-03T09:23:07.334Z,17.13
2018-05-03T09:25:33.589Z,17.83
2018-05-03T09:27:59.830Z,16.63
2018-05-03T09:30:26.125Z,21.30
2018-05-03T09:32:52.398Z,14.30
2018-05-03T09:35:18.637Z,18.73
2018-05-03T09:37:44.837Z,13.73
2018-05-03T09:40:11.101Z,19.63
2018-05-03T09:42:37.326Z,15.93
2018-05-03T09:45:04.332Z,22.47
2018-05-03T09:47:30.555Z,16.40
2018-05-03T09:49:56.825Z,20.73
2018-05-03T09:52:23.109Z,21.07
2018-05-03T09:54:49.336Z,16.70
2018-05-03T09:57:15.710Z,15.63
2018-05-03T09:59:41.964Z,16.20
2018-05-03T10:02:08.972Z,19.20
2018-05-03T10:04:35.232Z,16.73
2018-05-03T10:07:02.233Z,13.23
2018-05-03T10:09:28.491Z,16.30
2018-05-03T10:11:54.700Z,13.00
2018-05-03T10:14:20.961Z,19.47
2018-05-03T10:16:47.933Z,17.83
2018-05-03T10:19:14.158Z,11.43
2018-05-03T10:21:40.409Z,12.80
2018-05-03T10:24:06.641Z,16.50
2018-05-03T10:26:32.878Z,13.33
2018-05-03T10:28:59.096Z,15.50
2018-05-03T10:31:25.333Z,11.70
2018-05-03T10:33:51.582Z,11.73
2018-05-03T10:36:17.929Z,15.97
2018-05-03T10:38:44.123Z,11.23
2018-05-03T10:41:10.373Z,13.03
2018-05-03T10:43:36.619Z,17.47
2018-05-03T10:46:03.651Z,14.60
2018-05-03T10:48:29.862Z,26.23
2018-05-03T10:50:56.072Z,13.77
2018-05-03T10:53:22.333Z,16.03
2018-05-03T10:55:48.574Z,15.97
2018-05-03T10:58:15.597Z,10.93
2018-05-03T11:00:41.855Z,16.83
2018-05-03T11:03:08.837Z,10.83
2018-05-03T11:05:35.098Z,20.03
2018-05-03T11:08:01.385Z,12.70
2018-05-03T11:10:27.660Z,11.40
2018-05-03T11:12:53.870Z,12.30
2018-05-03T11:15:20.133Z,17.30
2018-05-03T11:17:46.401Z,11.93
2018-05-03T11:20:12.598Z,12.47
2018-05-03T11:22:39.538Z,11.57
2018-05-03T11:25:05.813Z,12.50
2018-05-03T11:27:32.081Z,14.10
2018-05-03T11:29:58.333Z,15.93
2018-05-03T11:32:25.345Z,13.53
2018-05-03T11:34:52.358Z,14.53
2018-05-03T11:37:18.577Z,11.33
2018-05-03T11:39:44.805Z,17.57
2018-05-03T11:42:11.055Z,10.07
2018-05-03T11:44:37.308Z,10.83
2018-05-03T11:47:03.604Z,13.97
2018-05-03T11:49:29.877Z,16.83
2018-05-03T11:51:56.090Z,15.83
2018-05-03T11:54:22.305Z,15.03
2018-05-03T11:56:48.520Z,11.80
2018-05-03T11:59:14.927Z,13.50
2018-05-03T12:01:41.059Z,12.37
2018-05-03T12:04:07.292Z,13.90
2018-05-03T12:06:33.545Z,14.53
2018-05-03T12:08:59.847Z,13.30
2018-05-03T12:11:26.059Z,12.33
2018-05-03T12:13:53.052Z,13.70
2018-05-03T12:16:19.269Z,11.10
2018-05-03T12:18:45.525Z,11.83
2018-05-03T12:21:11.755Z,10.73
2018-05-03T12:23:38.022Z,22.93
2018-05-03T12:26:04.272Z,11.40
2018-05-03T12:28:30.537Z,17.23
2018-05-03T12:30:56.769Z,16.87
2018-05-03T12:33:23.021Z,14.97
2018-05-03T12:35:50.011Z,14.67
2018-05-03T12:38:16.255Z,12.37
2018-05-03T12:40:42.485Z,17.63
2018-05-03T12:43:08.775Z,13.33
2018-05-03T12:45:35.073Z,13.77
2018-05-03T12:48:01.281Z,14.87
2018-05-03T12:50:27.584Z,12.83
2018-05-03T12:52:53.820Z,13.37
2018-05-03T12:55:20.065Z,14.73
2018-05-03T12:57:46.316Z,15.47
2018-05-03T13:00:12.577Z,16.87
2018-05-03T13:02:38.825Z,16.33
2018-05-03T13:05:05.142Z,15.10
2018-05-03T13:07:31.422Z,14.47
2018-05-03T13:09:57.708Z,13.10
2018-05-03T13:12:23.945Z,15.20
2018-05-03T13:14:50.177Z,22.90
2018-05-03T13:17:16.490Z,17.13
2018-05-03T13:19:42.754Z,13.47
2018-05-03T13:22:09.039Z,12.90
2018-05-03T13:24:35.273Z,15.57
2018-05-03T13:27:01.525Z,16.30
2018-05-03T13:29:27.801Z,17.77
2018-05-03T13:31:54.765Z,18.87
2018-05-03T13:34:21.833Z,12.33
2018-05-03T13:36:48.774Z,10.93
2018-05-03T13:39:15.013Z,12.27
2018-05-03T13:41:41.229Z,9.63
2018-05-03T13:44:07.497Z,10.37
2018-05-03T13:46:33.727Z,12.53
2018-05-03T13:48:59.989Z,12.00
2018-05-03T13:51:26.221Z,17.07
2018-05-03T13:53:53.233Z,12.20
2018-05-03T13:56:19.465Z,11.03
2018-05-03T13:58:45.708Z,12.90
2018-05-03T14:01:13.653Z,11.90
2018-05-03T14:03:39.888Z,13.97
2018-05-03T14:06:06.178Z,10.30
2018-05-03T14:08:32.474Z,13.10
2018-05-03T14:10:59.477Z,11.93
2018-05-03T14:13:25.694Z,14.57
2018-05-03T14:15:51.923Z,15.77
2018-05-03T14:18:18.185Z,16.07
2018-05-03T14:20:44.404Z,19.03
2018-05-03T14:23:10.677Z,9.97
2018-05-03T14:25:36.916Z,12.63
2018-05-03T14:28:03.182Z,13.80
2018-05-03T14:30:29.446Z,10.83
2018-05-03T14:32:56.431Z,11.80
2018-05-03T14:35:22.678Z,10.93
2018-05-03T14:37:48.934Z,13.23
2018-05-03T14:40:15.209Z,12.07
2018-05-03T14:42:41.459Z,10.80
2018-05-03T14:45:07.685Z,10.70
2018-05-03T14:47:33.957Z,12.10
2018-05-03T14:50:00.186Z,11.27
2018-05-03T14:52:26.421Z,14.10
2018-05-03T14:54:53.418Z,11.50
2018-05-03T14:57:19.677Z,12.43
2018-05-03T14:59:45.894Z,13.53
2018-05-03T15:02:12.112Z,14.60
2018-05-03T15:04:38.377Z,10.73
2018-05-03T15:07:05.357Z,10.00
2018-05-03T15:09:31.579Z,10.70
2018-05-03T15:11:57.816Z,12.03
2018-05-03T15:14:24.029Z,15.37
2018-05-03T15:16:50.244Z,15.83
2018-05-03T15:19:16.480Z,16.60
2018-05-03T15:21:42.740Z,10.57
2018-05-03T15:24:09.016Z,9.37
2018-05-03T15:26:35.269Z,9.27
2018-05-03T15:29:01.492Z,9.67
2018-05-03T15:31:27.776Z,9.93
2018-05-03T15:33:54.099Z,10.87
2018-05-03T15:36:20.263Z,9.70
2018-05-03T15:38:47.227Z,11.43
2018-05-03T15:41:13.545Z,8.67
2018-05-03T15:43:40.502Z,9.77
2018-05-03T15:46:06.749Z,10.30
2018-05-03T15:48:32.992Z,10.07
2018-05-03T15:50:59.260Z,8.60
2018-05-03T15:53:25.529Z,11.20
2018-05-03T15:55:51.792Z,9.33
2018-05-03T15:58:18.033Z,8.70
2018-05-03T16:00:44.290Z,11.00
2018-05-03T16:03:11.317Z,8.67
2018-05-03T16:05:37.552Z,10.90
2018-05-03T16:08:03.803Z,8.00
2018-05-03T16:10:30.042Z,9.13
2018-05-03T16:12:56.308Z,10.33
2018-05-03T16:15:22.577Z,7.43
2018-05-03T16:17:49.601Z,7.70
2018-05-03T16:20:15.873Z,8.87
2018-05-03T16:22:42.128Z,8.60
2018-05-03T16:25:08.354Z,14.07
2018-05-03T16:27:34.743Z,8.63
2018-05-03T16:30:01.093Z,9.80
2018-05-03T16:32:27.522Z,7.47
2018-05-03T16:34:53.908Z,10.70
2018-05-03T16:37:20.268Z,13.30
2018-05-03T16:39:46.656Z,8.27
2018-05-03T16:42:12.894Z,9.70
2018-05-03T16:44:39.142Z,9.27
2018-05-03T16:47:05.384Z,9.77
2018-05-03T16:49:32.404Z,8.93
2018-05-03T16:51:58.648Z,9.80
2018-05-03T16:54:24.889Z,10.30
2018-05-03T16:56:51.890Z,12.77
2018-05-03T16:59:18.201Z,8.07
2018-05-03T17:01:44.464Z,9.40
2018-05-03T17:04:10.699Z,13.80
2018-05-03T17:06:36.981Z,8.20
2018-05-03T17:09:03.281Z,9.77
2018-05-03T17:11:29.539Z,8.57
2018-05-03T17:13:55.836Z,8.37
2018-05-03T17:16:22.832Z,12.50
2018-05-03T17:18:49.064Z,7.40
2018-05-03T17:21:15.333Z,7.80
2018-05-03T17:23:42.301Z,8.93
2018-05-03T17:26:08.608Z,12.07
2018-05-03T17:28:35.598Z,7.90
2018-05-03T17:31:01.894Z,8.60
2018-05-03T17:33:28.845Z,8.43
2018-05-03T17:35:55.823Z,8.10
2018-05-03T17:38:22.053Z,8.57
2018-05-03T17:40:48.268Z,8.13
2018-05-03T17:43:14.473Z,7.07
2018-05-03T17:45:40.679Z,8.20
2018-05-03T17:48:06.946Z,8.30
2018-05-03T17:50:33.177Z,8.00
2018-05-03T17:52:59.389Z,8.73
2018-05-03T17:55:25.681Z,9.43
2018-05-03T17:57:51.914Z,8.07
2018-05-03T18:00:18.189Z,8.30
2018-05-03T18:02:44.432Z,8.40
2018-05-03T18:05:10.658Z,9.20
2018-05-03T18:07:36.918Z,10.07
2018-05-03T18:10:03.201Z,16.00
2018-05-03T18:12:29.448Z,7.70
2018-05-03T18:14:55.751Z,12.00
2018-05-03T18:17:22.205Z,7.87
2018-05-03T18:19:48.470Z,10.73
2018-05-03T18:22:14.693Z,9.53
2018-05-03T18:24:40.998Z,9.57
2018-05-03T18:27:07.257Z,8.93
2018-05-03T18:29:33.500Z,7.03
2018-05-03T18:31:59.729Z,6.87
2018-05-03T18:34:25.968Z,9.13
2018-05-03T18:36:52.927Z,10.90
2018-05-03T18:39:19.920Z,12.30
2018-05-03T18:41:46.308Z,7.33
2018-05-03T18:44:12.413Z,10.73
2018-05-03T18:46:38.640Z,6.77
2018-05-03T18:49:04.850Z,8.63
2018-05-03T18:51:31.128Z,6.40
2018-05-03T18:53:57.360Z,10.03
2018-05-03T18:56:23.623Z,7.57
2018-05-03T18:58:49.876Z,8.87
2018-05-03T19:01:16.184Z,6.00
2018-05-03T19:03:42.421Z,8.80
2018-05-03T19:06:08.716Z,7.53
2018-05-03T19:08:34.896Z,7.80
2018-05-03T19:11:01.881Z,6.10
2018-05-03T19:13:28.134Z,13.33
2018-05-03T19:15:54.412Z,5.17
2018-05-03T19:18:20.660Z,5.67
2018-05-03T19:20:46.985Z,6.23
2018-05-03T19:23:13.163Z,6.17
2018-05-03T19:25:39.417Z,6.63
2018-05-03T19:28:06.400Z,5.90
2018-05-03T19:30:32.658Z,5.50
2018-05-03T19:32:58.926Z,6.83
2018-05-03T19:35:25.943Z,9.87
2018-05-03T19:37:52.202Z,5.93
2018-05-03T19:40:19.147Z,5.40
2018-05-03T19:42:46.127Z,6.93
2018-05-03T19:45:12.357Z,9.30
2018-05-03T19:47:38.643Z,6.83
2018-05-03T19:50:04.877Z,5.50
2018-05-03T19:52:31.884Z,7.33
2018-05-03T19:54:58.173Z,7.30
2018-05-03T19:57:24.417Z,8.63
2018-05-03T19:59:50.706Z,5.70
2018-05-03T20:02:17.689Z,5.83
2018-05-03T20:04:43.910Z,12.63
2018-05-03T20:07:10.177Z,5.37
2018-05-03T20:09:36.396Z,6.13
2018-05-03T20:12:02.654Z,6.87
2018-05-03T20:14:28.871Z,8.07
2018-05-03T20:16:55.118Z,7.53
2018-05-03T20:19:22.082Z,7.17
2018-05-03T20:21:48.351Z,6.93
2018-05-03T20:24:14.564Z,7.17
2018-05-03T20:26:40.799Z,7.00
2018-05-03T20:29:07.121Z,7.73
2018-05-03T20:31:33.374Z,7.80
2018-05-03T20:33:59.611Z,8.23
2018-05-03T20:36:25.892Z,7.93
2018-05-03T20:38:52.158Z,8.47
2018-05-03T20:41:18.411Z,13.40
2018-05-03T20:43:44.686Z,10.70
2018-05-03T20:46:11.045Z,9.93
2018-05-03T20:48:37.221Z,8.03
2018-05-03T20:51:04.220Z,9.00
2018-05-03T20:53:30.418Z,10.67
2018-05-03T20:55:56.648Z,9.30
2018-05-03T20:58:22.901Z,8.63
2018-05-03T21:00:49.160Z,9.07
2018-05-03T21:03:15.361Z,10.70
2018-05-03T21:05:41.661Z,18.90
2018-05-03T21:08:07.920Z,12.50
2018-05-03T21:10:34.128Z,10.53
2018-05-03T21:13:00.457Z,11.40
2018-05-03T21:15:26.720Z,14.97
2018-05-03T21:17:52.994Z,14.00
2018-05-03T21:20:19.289Z,8.90
2018-05-03T21:22:45.510Z,9.50
2018-05-03T21:25:11.786Z,8.80
2018-05-03T21:27:38.000Z,7.13
2018-05-03T21:30:04.280Z,7.20
2018-05-03T21:32:30.504Z,13.63
2018-05-03T21:34:56.715Z,7.27
2018-05-03T21:37:22.989Z,7.67
2018-05-03T21:39:49.271Z,7.57
2018-05-03T21:42:15.511Z,8.70
2018-05-03T21:44:41.731Z,6.13
2018-05-03T21:47:08.089Z,6.70
2018-05-03T21:49:35.096Z,7.10
2018-05-03T21:52:01.379Z,6.73
2018-05-03T21:54:27.617Z,7.97
2018-05-03T21:56:54.595Z,5.77
2018-05-03T21:59:20.825Z,6.63
2018-05-03T22:01:47.082Z,7.47
2018-05-03T22:04:13.412Z,6.17
2018-05-03T22:06:39.636Z,5.43
2018-05-03T22:09:05.899Z,7.43
2018-05-03T22:11:32.169Z,5.07
2018-05-03T22:13:58.397Z,5.50
2018-05-03T22:16:24.665Z,5.77
2018-05-03T22:18:50.883Z,9.03
2018-05-03T22:21:17.141Z,6.60
2018-05-03T22:23:43.369Z,11.83
2018-05-03T22:26:09.646Z,6.37
2018-05-03T22:28:35.885Z,5.47
2018-05-03T22:31:02.162Z,5.57
2018-05-03T22:33:29.161Z,5.43
2018-05-03T22:35:55.405Z,5.30
2018-05-03T22:38:21.675Z,5.53
2018-05-03T22:40:48.749Z,5.50
2018-05-03T22:43:14.944Z,7.33
2018-05-03T22:45:41.913Z,7.20
2018-05-03T22:48:08.172Z,5.50
2018-05-03T22:50:34.430Z,5.07
2018-05-03T22:53:00.710Z,6.27
2018-05-03T22:55:26.967Z,7.07
2018-05-03T22:57:53.183Z,5.40
2018-05-03T23:00:19.492Z,6.30
2018-05-03T23:02:45.730Z,5.90
2018-05-03T23:05:12.003Z,5.47
2018-05-03T23:07:38.272Z,6.70
2018-05-03T23:10:04.536Z,6.20
2018-05-03T23:12:30.756Z,6.70
2018-05-03T23:14:57.033Z,5.50
2018-05-03T23:17:24.027Z,6.60
2018-05-03T23:19:50.240Z,7.10
2018-05-03T23:22:16.484Z,8.70
2018-05-03T23:24:42.690Z,6.87
2018-05-03T23:27:08.990Z,6.67
2018-05-03T23:29:35.941Z,6.73
2018-05-03T23:32:02.897Z,6.77
2018-05-03T23:34:29.133Z,6.30
2018-05-03T23:36:55.389Z,6.27
2018-05-03T23:39:21.645Z,5.80
2018-05-03T23:41:47.901Z,5.77
2018-05-03T23:44:14.908Z,6.20
2018-05-03T23:46:41.097Z,5.97
2018-05-03T23:49:07.344Z,6.77
2018-05-03T23:51:33.561Z,6.17
2018-05-03T23:53:59.764Z,5.20
2018-05-03T23:56:26.012Z,5.27
2018-05-03T23:58:52.244Z,6.20
